sim
Sign-in with your pilot id or email,
or register
Callsign
Passwort

Schedule Details

Flight Number: OEO6155
Departure: McCarran International Airport (KLAS) at 01:05
Arrival: Munich Airport (EDDM) at 12:05

Weather Information
Getting current METAR information for KLAS 221456Z 00000KT 8SM CLR 27/04 A3000 RMK AO2 SLP132 HZ AND FU VC ALQDS T02720039 51015
Getting current METAR information for EDDM 221450Z 04005KT 9999 FEW040 24/13 Q1011 NOSIG

Schedule Frequency

Route Map